createdAt,value
2023-03-29T00:02:04.355Z,79.05
2023-03-29T00:04:31.418Z,78.01
2023-03-29T00:07:03.945Z,77.17
2023-03-29T00:09:33.820Z,77.12
2023-03-29T00:12:01.484Z,78.28
2023-03-29T00:14:30.628Z,77.94
2023-03-29T00:16:58.272Z,76.47
2023-03-29T00:19:24.921Z,75.86
2023-03-29T00:21:51.519Z,76.30
2023-03-29T00:24:18.131Z,77.96
2023-03-29T00:26:44.801Z,78.71
2023-03-29T00:29:11.428Z,76.94
2023-03-29T00:31:38.405Z,75.58
2023-03-29T00:34:05.312Z,74.53
2023-03-29T00:36:31.949Z,74.61
2023-03-29T00:38:58.586Z,74.62
2023-03-29T00:41:26.108Z,77.24
2023-03-29T00:44:01.325Z,81.86
2023-03-29T00:46:30.586Z,82.01
2023-03-29T00:49:05.303Z,82.54
2023-03-29T00:51:37.365Z,82.53
2023-03-29T00:54:14.753Z,83.33
2023-03-29T00:56:44.868Z,82.55
2023-03-29T00:59:16.167Z,83.33
2023-03-29T01:01:54.326Z,82.99
2023-03-29T01:04:31.204Z,84.31
2023-03-29T01:07:13.655Z,84.00
2023-03-29T01:09:44.567Z,84.82
2023-03-29T01:12:18.390Z,83.58
2023-03-29T01:14:51.708Z,84.32
2023-03-29T01:17:21.794Z,84.61
2023-03-29T01:19:58.314Z,83.80
2023-03-29T01:22:28.366Z,84.30
2023-03-29T01:25:07.630Z,82.87
2023-03-29T01:28:10.184Z,82.53
2023-03-29T01:31:09.056Z,80.72
2023-03-29T01:33:43.877Z,80.24
2023-03-29T01:36:34.980Z,82.13
2023-03-29T01:39:07.087Z,82.01
2023-03-29T01:41:46.855Z,83.25
2023-03-29T01:44:45.456Z,84.37
2023-03-29T01:47:33.065Z,84.01
2023-03-29T01:50:04.009Z,82.38
2023-03-29T01:52:50.838Z,83.23
2023-03-29T01:55:24.099Z,83.46
2023-03-29T01:57:54.092Z,82.37
2023-03-29T02:00:27.751Z,81.26
2023-03-29T02:03:00.242Z,82.25
2023-03-29T02:05:30.638Z,83.42
2023-03-29T02:08:00.395Z,82.91
2023-03-29T02:10:28.168Z,82.41
2023-03-29T02:12:55.350Z,82.74
2023-03-29T02:15:23.508Z,81.83
2023-03-29T02:17:50.941Z,81.24
2023-03-29T02:20:26.930Z,80.54
2023-03-29T02:23:09.291Z,81.96
2023-03-29T02:25:37.975Z,82.18
2023-03-29T02:28:06.773Z,80.02
2023-03-29T02:30:54.683Z,81.82
2023-03-29T02:33:34.418Z,81.66
2023-03-29T02:36:10.287Z,81.10
2023-03-29T02:38:39.120Z,82.47
2023-03-29T02:41:07.402Z,82.23
2023-03-29T02:43:35.612Z,82.99
2023-03-29T02:46:03.568Z,83.36
2023-03-29T02:48:32.289Z,83.70
2023-03-29T02:51:03.365Z,82.51
2023-03-29T02:53:52.016Z,81.47
2023-03-29T02:56:21.590Z,80.24
2023-03-29T02:58:48.163Z,80.27
2023-03-29T03:01:17.971Z,81.40
2023-03-29T03:03:45.251Z,82.30
2023-03-29T03:06:13.508Z,81.76
2023-03-29T03:08:40.304Z,82.43
2023-03-29T03:11:07.157Z,81.71
2023-03-29T03:13:34.178Z,82.56
2023-03-29T03:16:01.218Z,81.32
2023-03-29T03:18:28.683Z,80.91
2023-03-29T03:21:01.711Z,81.30
2023-03-29T03:23:29.510Z,82.98
2023-03-29T03:25:57.073Z,81.75
2023-03-29T03:28:24.450Z,81.96
2023-03-29T03:30:51.387Z,81.45
2023-03-29T03:33:54.437Z,81.77
2023-03-29T03:36:37.726Z,81.13
2023-03-29T03:39:07.128Z,80.32
2023-03-29T03:41:34.722Z,81.15
2023-03-29T03:44:02.107Z,81.13
2023-03-29T03:46:29.721Z,81.11
2023-03-29T03:48:57.643Z,80.69
2023-03-29T03:51:30.373Z,78.80
2023-03-29T03:53:57.430Z,78.20
2023-03-29T03:56:44.570Z,78.91
2023-03-29T03:59:23.424Z,79.08
2023-03-29T04:01:56.685Z,78.31
2023-03-29T04:04:24.813Z,79.19
2023-03-29T04:07:13.077Z,79.91
2023-03-29T04:09:55.514Z,78.44
2023-03-29T04:12:45.527Z,78.08
2023-03-29T04:15:12.449Z,76.40
2023-03-29T04:17:44.771Z,77.45
2023-03-29T04:20:24.345Z,76.64
2023-03-29T04:22:51.817Z,77.38
2023-03-29T04:25:21.468Z,76.77
2023-03-29T04:27:50.418Z,76.17
2023-03-29T04:30:37.834Z,75.30
2023-03-29T04:33:15.501Z,77.04
2023-03-29T04:35:47.778Z,77.29
2023-03-29T04:38:16.782Z,75.58
2023-03-29T04:40:45.669Z,75.30
2023-03-29T04:43:31.231Z,75.09
2023-03-29T04:46:08.005Z,75.79
2023-03-29T04:48:57.476Z,78.17
2023-03-29T04:51:33.411Z,77.46
2023-03-29T04:54:00.866Z,77.46
2023-03-29T04:56:32.545Z,77.14
2023-03-29T04:59:32.215Z,75.78
2023-03-29T05:02:01.232Z,76.95
2023-03-29T05:04:28.530Z,78.66
2023-03-29T05:07:12.964Z,76.93
2023-03-29T05:09:40.777Z,78.13
2023-03-29T05:12:08.629Z,78.12
2023-03-29T05:14:47.162Z,77.45
2023-03-29T05:17:14.294Z,78.12
2023-03-29T05:19:41.361Z,77.81
2023-03-29T05:22:08.979Z,77.11
2023-03-29T05:24:36.505Z,77.48
2023-03-29T05:27:22.948Z,76.58
2023-03-29T05:30:01.244Z,76.52
2023-03-29T05:32:43.020Z,75.50
2023-03-29T05:35:12.606Z,76.06
2023-03-29T05:37:39.312Z,76.30
2023-03-29T05:40:10.186Z,76.25
2023-03-29T05:42:54.006Z,75.47
2023-03-29T05:45:22.948Z,76.98
2023-03-29T05:47:50.478Z,74.86
2023-03-29T05:50:17.280Z,75.62
2023-03-29T05:52:44.807Z,75.16
2023-03-29T05:55:11.911Z,75.06
2023-03-29T05:57:39.617Z,75.58
2023-03-29T06:00:23.451Z,75.92
2023-03-29T06:03:03.654Z,75.23
2023-03-29T06:05:40.509Z,75.56
2023-03-29T06:08:07.184Z,74.37
2023-03-29T06:10:50.189Z,74.83
2023-03-29T06:13:46.091Z,75.95
2023-03-29T06:16:13.495Z,76.59
2023-03-29T06:18:41.089Z,75.71
2023-03-29T06:21:09.326Z,74.32
2023-03-29T06:23:36.559Z,74.58
2023-03-29T06:26:04.167Z,74.97
2023-03-29T06:28:31.847Z,75.88
2023-03-29T06:31:02.683Z,75.59
2023-03-29T06:33:34.287Z,75.89
2023-03-29T06:36:24.296Z,76.12
2023-03-29T06:38:51.236Z,75.71
2023-03-29T06:41:41.059Z,76.54
2023-03-29T06:44:07.702Z,75.92
2023-03-29T06:46:49.335Z,76.78
2023-03-29T06:49:15.949Z,76.57
2023-03-29T06:52:01.196Z,75.89
2023-03-29T06:54:28.260Z,75.54
2023-03-29T06:57:00.989Z,74.97
2023-03-29T06:59:29.244Z,74.91
2023-03-29T07:01:58.606Z,74.00
2023-03-29T07:04:44.693Z,73.05
2023-03-29T07:07:27.511Z,73.76
2023-03-29T07:10:09.439Z,75.30
2023-03-29T07:13:15.623Z,75.23
2023-03-29T07:15:43.814Z,74.94
2023-03-29T07:18:20.233Z,75.15
2023-03-29T07:20:48.435Z,75.14
2023-03-29T07:23:15.446Z,73.58
2023-03-29T07:25:42.112Z,72.45
2023-03-29T07:28:09.229Z,74.06
2023-03-29T07:30:37.155Z,73.71
2023-03-29T07:33:15.950Z,71.33
2023-03-29T07:35:48.666Z,72.35
2023-03-29T07:38:15.647Z,73.40
2023-03-29T07:40:47.360Z,73.49
2023-03-29T07:43:40.197Z,73.16
2023-03-29T07:46:07.021Z,71.08
2023-03-29T07:48:37.038Z,71.73
2023-03-29T07:51:07.149Z,71.63
2023-03-29T07:53:42.173Z,71.90
2023-03-29T07:56:25.080Z,73.62
2023-03-29T07:59:02.185Z,73.14
2023-03-29T08:01:29.272Z,71.87
2023-03-29T08:03:59.163Z,71.30
2023-03-29T08:06:45.770Z,71.07
2023-03-29T08:09:12.964Z,71.22
2023-03-29T08:11:42.833Z,70.25
2023-03-29T08:14:17.665Z,70.75
2023-03-29T08:17:07.581Z,71.31
2023-03-29T08:19:40.003Z,70.19
2023-03-29T08:22:08.164Z,71.52
2023-03-29T08:24:55.293Z,70.48
2023-03-29T08:27:25.297Z,70.48
2023-03-29T08:29:52.702Z,70.08
2023-03-29T08:32:19.572Z,69.99
2023-03-29T08:34:46.916Z,70.05
2023-03-29T08:37:27.616Z,71.04
2023-03-29T08:39:57.080Z,70.98
2023-03-29T08:43:14.250Z,69.96
2023-03-29T08:46:35.321Z,69.37
2023-03-29T08:49:29.245Z,68.60
2023-03-29T08:52:00.474Z,71.12
2023-03-29T08:54:35.893Z,69.68
2023-03-29T08:57:32.757Z,69.87
2023-03-29T09:00:10.623Z,68.85
2023-03-29T09:02:40.960Z,69.34
2023-03-29T09:05:35.001Z,69.78
2023-03-29T09:08:17.472Z,68.17
2023-03-29T09:10:50.838Z,70.37
2023-03-29T09:13:23.269Z,69.10
2023-03-29T09:16:07.467Z,68.85
2023-03-29T09:18:50.985Z,69.26
2023-03-29T09:21:40.564Z,68.37
2023-03-29T09:24:16.065Z,68.34
2023-03-29T09:27:05.812Z,68.58
2023-03-29T09:30:02.502Z,68.05
2023-03-29T09:32:54.318Z,67.79
2023-03-29T09:35:42.146Z,67.43
2023-03-29T09:38:16.198Z,67.12
2023-03-29T09:40:49.800Z,67.55
2023-03-29T09:43:30.814Z,66.20
2023-03-29T09:46:04.113Z,65.29
2023-03-29T09:48:37.822Z,65.82
2023-03-29T09:51:07.082Z,64.94
2023-03-29T09:53:33.975Z,64.50
2023-03-29T09:56:19.024Z,66.05
2023-03-29T09:58:51.780Z,65.14
2023-03-29T10:01:19.807Z,64.95
2023-03-29T10:03:51.804Z,64.60
2023-03-29T10:06:21.452Z,64.60
2023-03-29T10:08:59.253Z,66.31
2023-03-29T10:11:37.042Z,66.26
2023-03-29T10:14:07.226Z,65.59
2023-03-29T10:16:38.543Z,65.48
2023-03-29T10:19:21.211Z,65.80
2023-03-29T10:21:50.046Z,64.39
2023-03-29T10:24:24.356Z,65.30
2023-03-29T10:26:55.663Z,64.33
2023-03-29T10:29:25.139Z,66.15
2023-03-29T10:31:52.931Z,65.05
2023-03-29T10:34:25.300Z,64.66
2023-03-29T10:36:58.585Z,64.42
2023-03-29T10:39:29.178Z,63.86
2023-03-29T10:41:56.051Z,62.69
2023-03-29T10:44:33.244Z,63.75
2023-03-29T10:47:17.934Z,62.72
2023-03-29T10:49:50.878Z,61.96
2023-03-29T10:52:17.866Z,63.47
2023-03-29T10:54:45.540Z,62.71
2023-03-29T10:57:17.018Z,60.98
2023-03-29T11:00:08.879Z,62.34
2023-03-29T11:03:25.155Z,62.58
2023-03-29T11:06:07.812Z,60.55
2023-03-29T11:08:49.504Z,63.89
2023-03-29T11:11:35.847Z,62.63
2023-03-29T11:14:33.675Z,61.67
2023-03-29T11:17:20.075Z,62.99
2023-03-29T11:20:05.738Z,62.04
2023-03-29T11:22:47.577Z,63.98
2023-03-29T11:25:53.852Z,62.20
2023-03-29T11:28:44.663Z,62.27
2023-03-29T11:31:21.274Z,62.89
2023-03-29T11:33:52.033Z,62.93
2023-03-29T11:36:31.773Z,61.55
2023-03-29T11:39:21.511Z,61.54
2023-03-29T11:41:57.172Z,61.32
2023-03-29T11:44:30.264Z,61.50
2023-03-29T11:47:10.485Z,61.72
2023-03-29T11:49:43.021Z,62.75
2023-03-29T11:52:24.446Z,60.76
2023-03-29T11:55:03.902Z,61.19
2023-03-29T11:57:35.196Z,61.29
2023-03-29T12:00:14.576Z,61.41
2023-03-29T12:02:48.662Z,60.51
2023-03-29T12:05:26.350Z,58.86
2023-03-29T12:08:09.150Z,61.53
2023-03-29T12:10:40.543Z,58.75
2023-03-29T12:13:21.015Z,61.28
2023-03-29T12:16:16.477Z,59.43
2023-03-29T12:18:48.221Z,61.37
2023-03-29T12:21:20.823Z,60.40
2023-03-29T12:23:49.259Z,61.71
2023-03-29T12:26:43.631Z,61.34
2023-03-29T12:29:52.566Z,61.98
2023-03-29T12:32:49.801Z,61.08
2023-03-29T12:36:13.721Z,61.80
2023-03-29T12:39:01.292Z,60.71
2023-03-29T12:41:53.535Z,61.16
2023-03-29T12:44:41.334Z,60.37
2023-03-29T12:47:39.698Z,59.73
2023-03-29T12:50:07.040Z,58.03
2023-03-29T12:52:36.142Z,58.57
2023-03-29T12:55:20.800Z,60.32
2023-03-29T12:58:10.164Z,59.67
2023-03-29T13:00:36.831Z,60.31
2023-03-29T13:03:34.712Z,60.69
2023-03-29T13:06:05.279Z,59.70
2023-03-29T13:08:44.116Z,60.76
2023-03-29T13:11:31.756Z,59.35
2023-03-29T13:14:01.889Z,59.02
2023-03-29T13:16:34.300Z,60.31
2023-03-29T13:19:29.422Z,60.21
2023-03-29T13:22:17.274Z,57.64
2023-03-29T13:25:14.107Z,57.38
2023-03-29T13:28:14.232Z,58.50
2023-03-29T13:30:58.411Z,56.72
2023-03-29T13:33:43.604Z,58.12
2023-03-29T13:36:21.683Z,58.48
2023-03-29T13:38:50.544Z,58.41
2023-03-29T13:41:28.795Z,60.45
2023-03-29T13:43:56.465Z,59.29
2023-03-29T13:46:37.239Z,59.49
2023-03-29T13:49:14.296Z,59.96
2023-03-29T13:51:47.572Z,60.07
2023-03-29T13:54:40.699Z,60.50
2023-03-29T13:57:17.773Z,59.51
2023-03-29T13:59:57.889Z,58.81
2023-03-29T14:02:32.683Z,60.46
2023-03-29T14:05:02.232Z,59.64
2023-03-29T14:07:32.480Z,59.71
2023-03-29T14:10:01.146Z,59.51
2023-03-29T14:12:37.361Z,59.29
2023-03-29T14:15:09.649Z,58.24
2023-03-29T14:17:36.958Z,56.70
2023-03-29T14:20:09.640Z,54.00
2023-03-29T14:22:37.678Z,57.29
2023-03-29T14:25:14.234Z,57.87
2023-03-29T14:27:41.778Z,58.77
2023-03-29T14:30:23.372Z,57.94
2023-03-29T14:32:51.352Z,56.06
2023-03-29T14:35:19.003Z,57.21
2023-03-29T14:37:47.900Z,56.62
2023-03-29T14:40:27.737Z,57.01
2023-03-29T14:42:55.236Z,57.24
2023-03-29T14:45:25.471Z,56.92
2023-03-29T14:47:52.874Z,58.23
2023-03-29T14:50:26.428Z,58.07
2023-03-29T14:52:54.073Z,55.55
2023-03-29T14:55:23.833Z,58.11
2023-03-29T14:57:54.268Z,58.19
2023-03-29T15:00:24.690Z,56.98
2023-03-29T15:03:00.611Z,55.28
2023-03-29T15:05:32.475Z,57.45
2023-03-29T15:08:01.148Z,56.75
2023-03-29T15:10:28.145Z,57.13
2023-03-29T15:12:55.986Z,59.06
2023-03-29T15:15:24.273Z,56.84
2023-03-29T15:17:52.644Z,56.31
2023-03-29T15:20:26.970Z,58.19
2023-03-29T15:23:04.600Z,59.37
2023-03-29T15:25:37.143Z,57.88
2023-03-29T15:28:04.361Z,58.85
2023-03-29T15:30:49.455Z,56.89
2023-03-29T15:33:23.617Z,57.30
2023-03-29T15:35:53.134Z,55.31
2023-03-29T15:38:25.434Z,55.99
2023-03-29T15:40:57.177Z,56.44
2023-03-29T15:43:24.562Z,58.23
2023-03-29T15:45:51.228Z,58.48
2023-03-29T15:48:23.776Z,59.62
2023-03-29T15:50:50.589Z,59.10
2023-03-29T15:53:18.253Z,59.45
2023-03-29T15:55:48.723Z,59.33
2023-03-29T15:58:18.972Z,59.36
2023-03-29T16:00:52.051Z,60.22
2023-03-29T16:03:19.003Z,59.87
2023-03-29T16:05:46.122Z,60.43
2023-03-29T16:08:13.596Z,59.97
2023-03-29T16:10:41.780Z,58.56
2023-03-29T16:13:12.207Z,56.81
2023-03-29T16:15:41.585Z,59.78
2023-03-29T16:18:08.628Z,57.61
2023-03-29T16:20:35.569Z,57.77
2023-03-29T16:23:08.685Z,58.24
2023-03-29T16:25:39.990Z,59.20
2023-03-29T16:28:09.106Z,58.78
2023-03-29T16:30:37.749Z,60.67
2023-03-29T16:33:08.439Z,57.84
2023-03-29T16:35:40.468Z,59.22
2023-03-29T16:38:07.986Z,60.33
2023-03-29T16:40:35.913Z,60.84
2023-03-29T16:43:02.843Z,60.36
2023-03-29T16:45:29.671Z,60.64
2023-03-29T16:47:56.373Z,60.38
2023-03-29T16:50:23.300Z,61.02
2023-03-29T16:52:52.480Z,61.29
2023-03-29T16:55:22.124Z,61.46
2023-03-29T16:57:50.824Z,62.33
2023-03-29T17:00:19.835Z,61.33
2023-03-29T17:02:49.697Z,61.88
2023-03-29T17:05:18.227Z,61.60
2023-03-29T17:07:45.391Z,62.00
2023-03-29T17:10:12.962Z,62.41
2023-03-29T17:12:39.894Z,62.41
2023-03-29T17:15:07.821Z,62.48
2023-03-29T17:17:35.421Z,62.04
2023-03-29T17:20:02.154Z,62.30
2023-03-29T17:22:28.730Z,62.12
2023-03-29T17:24:55.444Z,62.04
2023-03-29T17:27:22.163Z,61.06
2023-03-29T17:29:52.157Z,61.01
2023-03-29T17:32:18.805Z,61.77
2023-03-29T17:34:46.271Z,61.65
2023-03-29T17:37:12.956Z,61.49
2023-03-29T17:39:41.933Z,61.83
2023-03-29T17:42:08.828Z,62.07
2023-03-29T17:44:36.181Z,62.63
2023-03-29T17:47:03.052Z,62.62
2023-03-29T17:49:29.706Z,62.70
2023-03-29T17:51:56.360Z,61.12
2023-03-29T17:54:23.055Z,61.95
2023-03-29T17:56:50.565Z,62.22
2023-03-29T17:59:17.525Z,63.43
2023-03-29T18:01:44.255Z,63.57
2023-03-29T18:04:11.909Z,63.70
2023-03-29T18:06:38.579Z,62.16
2023-03-29T18:09:05.660Z,62.71
2023-03-29T18:11:32.339Z,61.73
2023-03-29T18:14:00.613Z,61.63
2023-03-29T18:16:28.310Z,61.65
2023-03-29T18:18:55.029Z,62.61
2023-03-29T18:21:21.963Z,61.23
2023-03-29T18:23:49.323Z,61.95
2023-03-29T18:26:16.620Z,60.38
2023-03-29T18:28:47.029Z,62.55
2023-03-29T18:31:15.010Z,62.66
2023-03-29T18:33:41.859Z,62.05
2023-03-29T18:36:11.855Z,62.05
2023-03-29T18:38:40.651Z,61.35
2023-03-29T18:41:08.558Z,62.54
2023-03-29T18:43:35.926Z,63.83
2023-03-29T18:46:04.172Z,64.69
2023-03-29T18:48:31.261Z,63.97
2023-03-29T18:50:57.881Z,62.45
2023-03-29T18:53:24.718Z,62.19
2023-03-29T18:55:51.326Z,62.86
2023-03-29T18:58:19.041Z,60.92
2023-03-29T19:00:45.957Z,61.13
2023-03-29T19:03:12.897Z,61.41
2023-03-29T19:05:39.803Z,61.11
2023-03-29T19:08:08.889Z,62.36
2023-03-29T19:10:39.932Z,62.03
2023-03-29T19:13:07.078Z,61.66
2023-03-29T19:15:34.887Z,61.09
2023-03-29T19:18:01.736Z,61.94
2023-03-29T19:20:29.293Z,62.59
2023-03-29T19:22:56.476Z,61.49
2023-03-29T19:25:23.121Z,62.53
2023-03-29T19:27:50.333Z,62.47
2023-03-29T19:30:18.361Z,61.77
2023-03-29T19:32:45.567Z,62.06
2023-03-29T19:35:13.292Z,63.08
2023-03-29T19:37:40.148Z,64.09
2023-03-29T19:40:09.626Z,64.92
2023-03-29T19:42:37.714Z,64.72
2023-03-29T19:45:05.752Z,64.83
2023-03-29T19:47:32.417Z,66.19
2023-03-29T19:49:59.966Z,66.75
2023-03-29T19:52:28.027Z,64.55
2023-03-29T19:54:56.003Z,63.38
2023-03-29T19:57:23.879Z,66.03
2023-03-29T19:59:53.108Z,68.69
2023-03-29T20:02:19.743Z,69.92
2023-03-29T20:04:46.502Z,69.87
2023-03-29T20:07:13.133Z,71.28
2023-03-29T20:09:43.884Z,71.54
2023-03-29T20:12:11.865Z,71.91
2023-03-29T20:14:40.272Z,72.19
2023-03-29T20:17:07.388Z,72.18
2023-03-29T20:19:36.731Z,73.11
2023-03-29T20:22:04.626Z,72.53
2023-03-29T20:24:32.608Z,72.39
2023-03-29T20:26:59.363Z,72.54
2023-03-29T20:29:26.367Z,72.66
2023-03-29T20:31:53.390Z,72.24
2023-03-29T20:34:20.421Z,71.73
2023-03-29T20:36:47.126Z,71.64
2023-03-29T20:39:17.652Z,71.02
2023-03-29T20:41:47.499Z,69.60
2023-03-29T20:44:16.735Z,70.28
2023-03-29T20:46:54.338Z,70.32
2023-03-29T20:49:26.325Z,69.68
2023-03-29T20:51:58.600Z,69.63
2023-03-29T20:54:26.000Z,69.97
2023-03-29T20:56:57.876Z,69.66
2023-03-29T20:59:24.922Z,69.30
2023-03-29T21:01:52.109Z,70.50
2023-03-29T21:04:19.841Z,70.52
2023-03-29T21:06:49.537Z,70.05
2023-03-29T21:09:17.543Z,70.42
2023-03-29T21:11:44.177Z,70.73
2023-03-29T21:14:11.341Z,71.36
2023-03-29T21:16:41.708Z,71.04
2023-03-29T21:19:09.510Z,70.87
2023-03-29T21:21:36.098Z,70.11
2023-03-29T21:24:03.821Z,68.83
2023-03-29T21:26:30.637Z,68.47
2023-03-29T21:28:57.379Z,68.46
2023-03-29T21:31:24.208Z,68.56
2023-03-29T21:33:50.865Z,68.00
2023-03-29T21:36:17.590Z,69.17
2023-03-29T21:38:44.374Z,68.95
2023-03-29T21:41:12.076Z,69.35
2023-03-29T21:43:39.506Z,69.74
2023-03-29T21:46:06.623Z,70.41
2023-03-29T21:48:33.240Z,70.55
2023-03-29T21:50:59.985Z,70.34
2023-03-29T21:53:27.037Z,70.26
2023-03-29T21:55:54.102Z,70.51
2023-03-29T21:58:20.805Z,70.34
2023-03-29T22:00:48.519Z,70.02
2023-03-29T22:03:15.859Z,70.50
2023-03-29T22:05:43.850Z,69.98
2023-03-29T22:08:10.485Z,69.31
2023-03-29T22:10:41.225Z,67.55
2023-03-29T22:13:08.906Z,67.25
2023-03-29T22:15:35.576Z,67.06
2023-03-29T22:18:03.360Z,67.25
2023-03-29T22:20:29.998Z,65.34
2023-03-29T22:22:56.757Z,65.91
2023-03-29T22:25:24.338Z,65.47
2023-03-29T22:27:50.954Z,66.00
2023-03-29T22:30:17.901Z,65.41
2023-03-29T22:32:44.622Z,65.15
2023-03-29T22:35:11.672Z,65.50
2023-03-29T22:37:43.390Z,64.56
2023-03-29T22:40:12.022Z,65.11
2023-03-29T22:42:39.417Z,63.98
2023-03-29T22:45:06.717Z,64.53
2023-03-29T22:47:34.136Z,65.60
2023-03-29T22:50:01.164Z,66.50
2023-03-29T22:52:27.873Z,67.15
2023-03-29T22:54:57.304Z,67.01
2023-03-29T22:57:24.103Z,67.56
2023-03-29T22:59:50.881Z,67.68
2023-03-29T23:02:17.515Z,67.02
2023-03-29T23:04:45.362Z,65.70
2023-03-29T23:07:12.286Z,66.26
2023-03-29T23:09:38.833Z,65.24
2023-03-29T23:12:05.633Z,66.15
2023-03-29T23:14:33.780Z,66.60
2023-03-29T23:17:00.476Z,65.56
2023-03-29T23:19:27.036Z,66.24
2023-03-29T23:21:55.116Z,66.11
2023-03-29T23:24:21.851Z,65.22
2023-03-29T23:26:48.998Z,65.58
2023-03-29T23:29:15.707Z,65.53
2023-03-29T23:31:42.486Z,64.98
2023-03-29T23:34:09.235Z,64.71
2023-03-29T23:36:35.844Z,64.65
2023-03-29T23:39:02.597Z,63.77
2023-03-29T23:41:30.461Z,65.01
2023-03-29T23:43:57.745Z,65.13
2023-03-29T23:46:24.654Z,64.58
2023-03-29T23:48:52.060Z,64.43
2023-03-29T23:51:23.285Z,64.77
2023-03-29T23:53:51.164Z,65.28
2023-03-29T23:56:21.645Z,64.49
2023-03-29T23:58:48.518Z,64.42
